createdAt,value
2023-02-23T00:00:29.420Z,99924.06
2023-02-23T00:03:01.547Z,99927.35
2023-02-23T00:05:31.612Z,99921.61
2023-02-23T00:08:00.100Z,99921.80
2023-02-23T00:10:31.956Z,99929.83
2023-02-23T00:13:00.958Z,99932.77
2023-02-23T00:15:32.103Z,99934.09
2023-02-23T00:18:01.105Z,99933.39
2023-02-23T00:20:29.891Z,99942.14
2023-02-23T00:22:59.389Z,99942.19
2023-02-23T00:25:31.257Z,99934.81
2023-02-23T00:28:00.054Z,99945.90
2023-02-23T00:30:28.525Z,99922.02
2023-02-23T00:32:57.113Z,99950.31
2023-02-23T00:35:25.501Z,99955.24
2023-02-23T00:37:59.201Z,99962.34
2023-02-23T00:40:27.994Z,99959.85
2023-02-23T00:42:56.475Z,99960.96
2023-02-23T00:45:26.494Z,99966.28
2023-02-23T00:47:55.387Z,99965.06
2023-02-23T00:50:24.690Z,99965.95
2023-02-23T00:52:53.176Z,99964.58
2023-02-23T00:55:21.552Z,99968.81
2023-02-23T00:57:51.572Z,99969.41
2023-02-23T01:00:21.084Z,99970.76
2023-02-23T01:02:50.687Z,99979.27
2023-02-23T01:05:20.702Z,99978.38
2023-02-23T01:07:51.351Z,99979.87
2023-02-23T01:10:19.928Z,99980.64
2023-02-23T01:12:50.622Z,99985.40
2023-02-23T01:15:20.370Z,99986.80
2023-02-23T01:17:48.850Z,99984.83
2023-02-23T01:20:19.422Z,99988.16
2023-02-23T01:22:51.743Z,99990.27
2023-02-23T01:25:20.342Z,99988.52
2023-02-23T01:27:48.822Z,99988.26
2023-02-23T01:30:18.464Z,99984.46
2023-02-23T01:32:46.888Z,99983.85
2023-02-23T01:35:15.296Z,99987.39
2023-02-23T01:37:44.169Z,99987.18
2023-02-23T01:40:29.064Z,99990.48
2023-02-23T01:43:07.165Z,99991.16
2023-02-23T01:45:36.678Z,99994.86
2023-02-23T01:48:14.613Z,99993.23
2023-02-23T01:50:49.615Z,99991.78
2023-02-23T01:53:18.106Z,99996.91
2023-02-23T01:55:46.483Z,100000.58
2023-02-23T01:58:20.079Z,100006.91
2023-02-23T02:00:57.000Z,100008.77
2023-02-23T02:03:31.399Z,100015.61
2023-02-23T02:06:02.221Z,100016.75
2023-02-23T02:08:31.353Z,100003.77
2023-02-23T02:11:25.606Z,100023.62
2023-02-23T02:13:55.623Z,100025.06
2023-02-23T02:17:02.714Z,100030.57
2023-02-23T02:20:33.266Z,100029.58
2023-02-23T02:23:27.563Z,100032.76
2023-02-23T02:26:16.197Z,100036.39
2023-02-23T02:28:50.825Z,100037.20
2023-02-23T02:31:49.836Z,100037.23
2023-02-23T02:34:52.214Z,100041.98
2023-02-23T02:37:33.589Z,100046.38
2023-02-23T02:40:22.636Z,100046.89
2023-02-23T02:43:12.742Z,100050.10
2023-02-23T02:46:00.057Z,100057.85
2023-02-23T02:48:31.345Z,100057.20
2023-02-23T02:51:35.437Z,100061.12
2023-02-23T02:54:27.470Z,100057.90
2023-02-23T02:56:58.003Z,100063.12
2023-02-23T02:59:46.458Z,100062.88
2023-02-23T03:02:41.867Z,100060.84
2023-02-23T03:05:33.696Z,100066.83
2023-02-23T03:08:44.070Z,100067.45
2023-02-23T03:11:32.208Z,100071.32
2023-02-23T03:14:29.154Z,100071.18
2023-02-23T03:17:29.593Z,100067.81
2023-02-23T03:20:32.375Z,100066.33
2023-02-23T03:23:25.756Z,100072.42
2023-02-23T03:26:19.106Z,100075.26
2023-02-23T03:29:21.283Z,100078.29
2023-02-23T03:32:23.679Z,100075.08
2023-02-23T03:35:27.061Z,100079.03
2023-02-23T03:38:23.394Z,100082.57
2023-02-23T03:41:11.843Z,100084.86
2023-02-23T03:44:02.957Z,100090.02
2023-02-23T03:46:50.794Z,100095.03
2023-02-23T03:49:38.017Z,100096.69
2023-02-23T03:52:29.133Z,100098.98
2023-02-23T03:55:22.189Z,100100.33
2023-02-23T03:58:11.262Z,100104.55
2023-02-23T04:01:01.546Z,100103.45
2023-02-23T04:03:49.830Z,100108.84
2023-02-23T04:06:37.217Z,100110.41
2023-02-23T04:09:26.289Z,100114.90
2023-02-23T04:12:16.476Z,100114.75
2023-02-23T04:14:59.909Z,100115.25
2023-02-23T04:17:29.310Z,100120.40
2023-02-23T04:19:57.895Z,100121.38
2023-02-23T04:22:26.377Z,100123.41
2023-02-23T04:24:54.870Z,100125.84
2023-02-23T04:27:23.752Z,100129.58
2023-02-23T04:29:53.159Z,100134.80
2023-02-23T04:32:23.502Z,100135.02
2023-02-23T04:34:52.081Z,100137.63
2023-02-23T04:37:20.453Z,100140.13
2023-02-23T04:39:50.266Z,100142.06
2023-02-23T04:42:18.644Z,100148.59
2023-02-23T04:44:47.537Z,100147.06
2023-02-23T04:47:16.134Z,100148.78
2023-02-23T04:49:44.707Z,100152.67
2023-02-23T04:52:12.998Z,100156.63
2023-02-23T04:54:42.093Z,100155.27
2023-02-23T04:57:10.466Z,100157.77
2023-02-23T04:59:38.949Z,100159.44
2023-02-23T05:02:07.740Z,100159.52
2023-02-23T05:04:39.016Z,100165.05
2023-02-23T05:07:07.474Z,100166.62
2023-02-23T05:09:35.852Z,100171.23
2023-02-23T05:12:05.153Z,100175.16
2023-02-23T05:14:34.617Z,100176.48
2023-02-23T05:17:03.042Z,100182.25
2023-02-23T05:19:35.623Z,100182.69
2023-02-23T05:22:06.258Z,100186.77
2023-02-23T05:24:34.843Z,100189.44
2023-02-23T05:27:03.325Z,100194.21
2023-02-23T05:29:32.015Z,100185.60
2023-02-23T05:32:00.904Z,100202.31
2023-02-23T05:34:29.596Z,100203.67
2023-02-23T05:36:58.182Z,100205.29
2023-02-23T05:39:27.276Z,100209.24
2023-02-23T05:41:55.582Z,100211.69
2023-02-23T05:44:24.860Z,100216.58
2023-02-23T05:46:53.657Z,100225.14
2023-02-23T05:49:22.951Z,100226.02
2023-02-23T05:51:51.845Z,100227.30
2023-02-23T05:54:20.837Z,100228.09
2023-02-23T05:56:49.627Z,100233.95
2023-02-23T05:59:18.625Z,100235.89
2023-02-23T06:01:47.459Z,100235.89
2023-02-23T06:04:19.484Z,100239.42
2023-02-23T06:06:50.022Z,100232.15
2023-02-23T06:09:19.020Z,100247.80
2023-02-23T06:11:48.336Z,100250.14
2023-02-23T06:14:16.802Z,100253.17
2023-02-23T06:16:49.168Z,100260.79
2023-02-23T06:19:18.907Z,100257.17
2023-02-23T06:21:47.265Z,100260.13
2023-02-23T06:24:16.466Z,100259.55
2023-02-23T06:26:45.783Z,100264.41
2023-02-23T06:29:14.968Z,100264.70
2023-02-23T06:31:44.990Z,100269.57
2023-02-23T06:34:13.881Z,100267.66
2023-02-23T06:36:43.590Z,100272.05
2023-02-23T06:39:13.831Z,100273.11
2023-02-23T06:41:43.834Z,100269.58
2023-02-23T06:44:12.318Z,100274.20
2023-02-23T06:46:43.389Z,100274.45
2023-02-23T06:49:12.252Z,100277.12
2023-02-23T06:51:43.228Z,100279.04
2023-02-23T06:54:11.772Z,100278.09
2023-02-23T06:56:40.874Z,100280.67
2023-02-23T06:59:12.741Z,100280.98
2023-02-23T07:01:45.059Z,100288.34
2023-02-23T07:04:16.228Z,100292.90
2023-02-23T07:06:45.246Z,100290.20
2023-02-23T07:09:15.678Z,100291.77
2023-02-23T07:11:47.123Z,100292.31
2023-02-23T07:14:26.086Z,100288.38
2023-02-23T07:16:55.354Z,100292.01
2023-02-23T07:19:25.081Z,100292.41
2023-02-23T07:21:54.059Z,100289.84
2023-02-23T07:24:22.744Z,100292.55
2023-02-23T07:26:52.366Z,100290.45
2023-02-23T07:29:21.042Z,100288.56
2023-02-23T07:31:50.822Z,100277.05
2023-02-23T07:34:19.544Z,100292.09
2023-02-23T07:36:48.027Z,100292.98
2023-02-23T07:39:16.513Z,100293.66
2023-02-23T07:41:44.995Z,100291.64
2023-02-23T07:44:22.329Z,100291.95
2023-02-23T07:46:53.128Z,100292.43
2023-02-23T07:49:21.503Z,100299.52
2023-02-23T07:51:50.085Z,100294.63
2023-02-23T07:54:20.020Z,100297.48
2023-02-23T07:56:48.490Z,100298.11
2023-02-23T07:59:17.898Z,100304.25
2023-02-23T08:01:46.273Z,100303.86
2023-02-23T08:04:15.513Z,100306.03
2023-02-23T08:06:44.568Z,100300.70
2023-02-23T08:09:13.052Z,100299.55
2023-02-23T08:11:41.431Z,100301.38
2023-02-23T08:14:11.350Z,100299.06
2023-02-23T08:16:40.005Z,100295.48
2023-02-23T08:19:09.953Z,100296.02
2023-02-23T08:21:38.945Z,100291.39
2023-02-23T08:24:11.325Z,100289.88
2023-02-23T08:26:41.595Z,100294.52
2023-02-23T08:29:10.365Z,100294.27
2023-02-23T08:31:40.887Z,100296.23
2023-02-23T08:34:10.471Z,100301.52
2023-02-23T08:36:43.686Z,100300.70
2023-02-23T08:39:13.990Z,100298.57
2023-02-23T08:41:43.602Z,100297.42
2023-02-23T08:44:12.082Z,100296.29
2023-02-23T08:47:47.135Z,100296.65
2023-02-23T08:50:25.229Z,100290.38
2023-02-23T08:52:55.256Z,100292.50
2023-02-23T08:55:26.802Z,100296.61
2023-02-23T08:57:55.389Z,100297.23
2023-02-23T09:00:24.524Z,100296.00
2023-02-23T09:02:53.289Z,100293.48
2023-02-23T09:05:22.196Z,100296.88
2023-02-23T09:07:51.678Z,100305.31
2023-02-23T09:10:20.892Z,100307.65
2023-02-23T09:12:51.716Z,100308.00
2023-02-23T09:15:20.342Z,100309.71
2023-02-23T09:17:48.751Z,100308.34
2023-02-23T09:20:18.191Z,100309.58
2023-02-23T09:22:49.749Z,100307.05
2023-02-23T09:25:23.158Z,100308.36
2023-02-23T09:27:53.512Z,100311.89
2023-02-23T09:30:22.575Z,100309.56
2023-02-23T09:32:51.152Z,100303.09
2023-02-23T09:35:20.916Z,100303.65
2023-02-23T09:37:53.653Z,100302.38
2023-02-23T09:40:27.051Z,100303.48
2023-02-23T09:43:15.613Z,100299.56
2023-02-23T09:45:48.427Z,100300.68
2023-02-23T09:48:25.470Z,100300.52
2023-02-23T09:50:55.898Z,100277.11
2023-02-23T09:53:34.080Z,100292.83
2023-02-23T09:56:06.397Z,100289.86
2023-02-23T09:58:36.199Z,100289.27
2023-02-23T10:02:32.662Z,100291.42
2023-02-23T10:05:05.822Z,100288.93
2023-02-23T10:07:45.181Z,100288.80
2023-02-23T10:10:29.360Z,100281.52
2023-02-23T10:13:00.685Z,100285.34
2023-02-23T10:15:53.273Z,100272.34
2023-02-23T10:18:45.286Z,100284.31
2023-02-23T10:21:18.746Z,100279.64
2023-02-23T10:23:47.479Z,100280.14
2023-02-23T10:26:24.489Z,100276.80
2023-02-23T10:28:54.563Z,100278.11
2023-02-23T10:31:41.602Z,100274.83
2023-02-23T10:34:18.930Z,100278.73
2023-02-23T10:36:58.682Z,100280.66
2023-02-23T10:39:27.745Z,100280.28
2023-02-23T10:42:01.214Z,100279.65
2023-02-23T10:44:30.124Z,100280.23
2023-02-23T10:47:08.350Z,100278.30
2023-02-23T10:49:48.996Z,100274.98
2023-02-23T10:52:48.926Z,100265.61
2023-02-23T10:55:26.423Z,100259.54
2023-02-23T10:58:03.809Z,100257.77
2023-02-23T11:00:34.228Z,100258.77
2023-02-23T11:03:04.680Z,100259.54
2023-02-23T11:05:37.974Z,100260.55
2023-02-23T11:08:20.377Z,100258.56
2023-02-23T11:11:05.857Z,100255.66
2023-02-23T11:13:39.875Z,100256.91
2023-02-23T11:16:13.457Z,100261.48
2023-02-23T11:19:04.082Z,100263.31
2023-02-23T11:21:40.353Z,100261.67
2023-02-23T11:24:36.987Z,100260.76
2023-02-23T11:27:07.318Z,100260.39
2023-02-23T11:29:36.828Z,100262.35
2023-02-23T11:32:30.697Z,100257.35
2023-02-23T11:35:20.795Z,100251.89
2023-02-23T11:37:49.822Z,100250.23
2023-02-23T11:40:21.350Z,100246.91
2023-02-23T11:42:53.931Z,100247.89
2023-02-23T11:45:23.422Z,100245.05
2023-02-23T11:47:59.087Z,100236.84
2023-02-23T11:50:35.807Z,100237.98
2023-02-23T11:53:14.099Z,100242.02
2023-02-23T11:55:51.582Z,100242.09
2023-02-23T11:58:36.248Z,100246.36
2023-02-23T12:01:13.795Z,100246.69
2023-02-23T12:03:56.582Z,100242.83
2023-02-23T12:06:30.497Z,100236.43
2023-02-23T12:09:03.149Z,100238.45
2023-02-23T12:11:34.780Z,100236.23
2023-02-23T12:14:28.443Z,100240.73
2023-02-23T12:17:04.305Z,100236.56
2023-02-23T12:19:55.046Z,100233.18
2023-02-23T12:22:26.997Z,100229.06
2023-02-23T12:25:05.326Z,100229.43
2023-02-23T12:27:44.878Z,100229.99
2023-02-23T12:30:38.335Z,100224.10
2023-02-23T12:33:30.320Z,100222.55
2023-02-23T12:36:21.866Z,100220.42
2023-02-23T12:38:58.155Z,100214.35
2023-02-23T12:41:40.774Z,100208.01
2023-02-23T12:44:15.606Z,100200.80
2023-02-23T12:46:51.475Z,100197.06
2023-02-23T12:49:22.910Z,100196.98
2023-02-23T12:51:53.952Z,100195.95
2023-02-23T12:54:22.961Z,100196.42
2023-02-23T12:56:55.139Z,100183.96
2023-02-23T12:59:34.146Z,100182.73
2023-02-23T13:02:06.561Z,100174.69
2023-02-23T13:04:51.084Z,100171.63
2023-02-23T13:07:35.151Z,100166.66
2023-02-23T13:10:12.680Z,100165.95
2023-02-23T13:12:51.152Z,100158.32
2023-02-23T13:15:32.136Z,100155.08
2023-02-23T13:18:16.074Z,100152.28
2023-02-23T13:20:51.419Z,100153.45
2023-02-23T13:23:34.130Z,100156.42
2023-02-23T13:26:11.830Z,100155.02
2023-02-23T13:29:07.654Z,100155.48
2023-02-23T13:31:37.286Z,100159.40
2023-02-23T13:34:10.503Z,100155.69
2023-02-23T13:36:40.986Z,100153.06
2023-02-23T13:39:18.942Z,100157.70
2023-02-23T13:41:52.526Z,100153.94
2023-02-23T13:44:37.254Z,100154.49
2023-02-23T13:47:35.125Z,100148.55
2023-02-23T13:50:28.207Z,100146.80
2023-02-23T13:52:58.937Z,100145.67
2023-02-23T13:55:29.449Z,100148.11
2023-02-23T13:58:11.247Z,100145.69
2023-02-23T14:00:40.242Z,100136.42
2023-02-23T14:03:09.391Z,100150.13
2023-02-23T14:05:44.479Z,100148.21
2023-02-23T14:08:33.255Z,100145.79
2023-02-23T14:11:02.963Z,100144.59
2023-02-23T14:13:33.128Z,100147.86
2023-02-23T14:16:16.529Z,100145.42
2023-02-23T14:18:54.491Z,100146.56
2023-02-23T14:21:52.699Z,100147.91
2023-02-23T14:24:25.903Z,100146.80
2023-02-23T14:27:38.400Z,100148.77
2023-02-23T14:30:11.500Z,100149.01
2023-02-23T14:32:42.121Z,100146.17
2023-02-23T14:35:32.326Z,100151.33
2023-02-23T14:38:02.136Z,100152.77
2023-02-23T14:40:35.141Z,100150.64
2023-02-23T14:43:04.027Z,100147.79
2023-02-23T14:45:34.549Z,100143.05
2023-02-23T14:48:07.542Z,100139.50
2023-02-23T14:50:36.542Z,100139.03
2023-02-23T14:53:06.867Z,100135.73
2023-02-23T14:55:38.308Z,100133.50
2023-02-23T14:58:27.889Z,100132.55
2023-02-23T15:00:57.299Z,100129.08
2023-02-23T15:03:25.912Z,100123.42
2023-02-23T15:05:59.186Z,100126.66
2023-02-23T15:08:30.523Z,100130.35
2023-02-23T15:11:12.550Z,100128.13
2023-02-23T15:13:50.144Z,100124.73
2023-02-23T15:16:32.251Z,100119.20
2023-02-23T15:19:01.513Z,100115.77
2023-02-23T15:21:30.314Z,100121.00
2023-02-23T15:24:24.605Z,100120.07
2023-02-23T15:26:53.845Z,100120.50
2023-02-23T15:29:30.990Z,100115.47
2023-02-23T15:32:15.425Z,100121.80
2023-02-23T15:34:43.827Z,100122.09
2023-02-23T15:37:20.711Z,100125.05
2023-02-23T15:39:53.516Z,100119.79
2023-02-23T15:42:25.233Z,100122.99
2023-02-23T15:45:01.828Z,100118.67
2023-02-23T15:47:35.658Z,100120.64
2023-02-23T15:50:08.879Z,100122.69
2023-02-23T15:52:39.913Z,100126.21
2023-02-23T15:55:10.249Z,100117.45
2023-02-23T15:57:53.536Z,100117.79
2023-02-23T16:00:32.882Z,100121.85
2023-02-23T16:03:04.585Z,100114.41
2023-02-23T16:05:41.937Z,100107.63
2023-02-23T16:08:23.200Z,100110.65
2023-02-23T16:11:13.295Z,100115.63
2023-02-23T16:13:45.717Z,100120.05
2023-02-23T16:16:25.787Z,100121.21
2023-02-23T16:19:01.611Z,100117.02
2023-02-23T16:21:31.706Z,100118.96
2023-02-23T16:24:02.036Z,100120.38
2023-02-23T16:26:55.131Z,100116.88
2023-02-23T16:29:44.165Z,100120.01
2023-02-23T16:32:20.282Z,100126.55
2023-02-23T16:35:14.482Z,100121.23
2023-02-23T16:38:01.945Z,100117.13
2023-02-23T16:40:30.641Z,100116.20
2023-02-23T16:42:59.851Z,100115.26
2023-02-23T16:45:29.911Z,100112.91
2023-02-23T16:48:02.469Z,100117.99
2023-02-23T16:50:31.127Z,100116.88
2023-02-23T16:53:02.324Z,100108.57
2023-02-23T16:55:31.177Z,100110.34
2023-02-23T16:58:01.003Z,100106.10
2023-02-23T17:00:32.411Z,100110.63
2023-02-23T17:03:01.440Z,100114.11
2023-02-23T17:05:31.485Z,100116.14
2023-02-23T17:08:05.261Z,100112.86
2023-02-23T17:10:34.705Z,100101.98
2023-02-23T17:13:27.431Z,100099.22
2023-02-23T17:15:56.596Z,100093.90
2023-02-23T17:18:27.859Z,100098.11
2023-02-23T17:20:57.169Z,100097.04
2023-02-23T17:23:28.418Z,100089.75
2023-02-23T17:25:57.822Z,100087.99
2023-02-23T17:28:26.211Z,100086.45
2023-02-23T17:30:55.269Z,100076.77
2023-02-23T17:33:24.297Z,100074.95
2023-02-23T17:35:52.597Z,100073.35
2023-02-23T17:38:33.978Z,100065.15
2023-02-23T17:41:04.288Z,100065.36
2023-02-23T17:43:32.870Z,100059.93
2023-02-23T17:46:02.530Z,100059.29
2023-02-23T17:48:35.067Z,100065.71
2023-02-23T17:51:09.436Z,100061.99
2023-02-23T17:53:38.484Z,100061.89
2023-02-23T17:56:10.053Z,100064.02
2023-02-23T17:58:40.478Z,100059.17
2023-02-23T18:01:11.028Z,100060.30
2023-02-23T18:03:41.115Z,100054.29
2023-02-23T18:06:12.911Z,100050.61
2023-02-23T18:08:42.618Z,100043.53
2023-02-23T18:11:11.516Z,100044.42
2023-02-23T18:13:40.597Z,100036.27
2023-02-23T18:16:10.442Z,100028.73
2023-02-23T18:18:40.116Z,100024.27
2023-02-23T18:21:13.521Z,100023.11
2023-02-23T18:23:42.122Z,100023.52
2023-02-23T18:26:12.957Z,100022.77
2023-02-23T18:28:44.693Z,100017.25
2023-02-23T18:31:17.990Z,100013.11
2023-02-23T18:33:53.214Z,100009.11
2023-02-23T18:36:30.049Z,100011.56
2023-02-23T18:38:58.816Z,100011.50
2023-02-23T18:41:31.090Z,100011.13
2023-02-23T18:44:05.122Z,100009.20
2023-02-23T18:46:33.647Z,99998.83
2023-02-23T18:49:03.827Z,100002.92
2023-02-23T18:51:33.230Z,100004.03
2023-02-23T18:54:03.676Z,100001.09
2023-02-23T18:56:32.870Z,99998.81
2023-02-23T18:59:04.405Z,99996.23
2023-02-23T19:01:37.807Z,99992.95
2023-02-23T19:04:08.549Z,99992.20
2023-02-23T19:06:39.375Z,99984.70
2023-02-23T19:09:14.712Z,99982.79
2023-02-23T19:11:44.741Z,99978.96
2023-02-23T19:14:17.115Z,99972.01
2023-02-23T19:16:47.028Z,99975.98
2023-02-23T19:19:18.388Z,99975.18
2023-02-23T19:21:46.764Z,99971.63
2023-02-23T19:24:15.141Z,99967.68
2023-02-23T19:26:44.751Z,99965.88
2023-02-23T19:29:13.342Z,99965.13
2023-02-23T19:31:43.026Z,99960.77
2023-02-23T19:34:11.433Z,99952.05
2023-02-23T19:36:40.943Z,99955.08
2023-02-23T19:39:15.884Z,99960.17
2023-02-23T19:41:45.281Z,99958.10
2023-02-23T19:44:17.626Z,99951.77
2023-02-23T19:46:46.039Z,99953.33
2023-02-23T19:49:14.833Z,99954.00
2023-02-23T19:51:45.156Z,99947.85
2023-02-23T19:54:13.639Z,99945.23
2023-02-23T19:56:43.558Z,99939.16
2023-02-23T19:59:12.346Z,99934.75
2023-02-23T20:01:43.803Z,99928.05
2023-02-23T20:04:12.922Z,99924.81
2023-02-23T20:06:47.324Z,99923.54
2023-02-23T20:09:17.369Z,99920.52
2023-02-23T20:11:49.627Z,99919.66
2023-02-23T20:14:18.601Z,99918.75
2023-02-23T20:16:48.743Z,99915.02
2023-02-23T20:19:18.027Z,99908.27
2023-02-23T20:21:46.403Z,99900.72
2023-02-23T20:24:16.603Z,99896.84
2023-02-23T20:26:46.040Z,99894.94
2023-02-23T20:29:18.171Z,99890.21
2023-02-23T20:31:52.572Z,99886.11
2023-02-23T20:34:24.136Z,99883.09
2023-02-23T20:36:54.049Z,99878.40
2023-02-23T20:39:27.086Z,99877.23
2023-02-23T20:41:55.474Z,99875.04
2023-02-23T20:44:24.564Z,99874.56
2023-02-23T20:46:53.157Z,99873.93
2023-02-23T20:49:22.979Z,99873.55
2023-02-23T20:51:52.478Z,99866.55
2023-02-23T20:54:21.270Z,99867.23
2023-02-23T20:57:07.913Z,99863.89
2023-02-23T20:59:38.093Z,99863.09
2023-02-23T21:02:08.428Z,99861.77
2023-02-23T21:04:39.170Z,99856.83
2023-02-23T21:07:07.882Z,99851.74
2023-02-23T21:09:40.328Z,99849.77
2023-02-23T21:12:12.913Z,99842.33
2023-02-23T21:14:50.402Z,99841.39
2023-02-23T21:17:18.886Z,99842.71
2023-02-23T21:19:47.371Z,99842.55
2023-02-23T21:22:17.291Z,99840.27
2023-02-23T21:24:45.972Z,99835.27
2023-02-23T21:27:14.355Z,99835.23
2023-02-23T21:29:42.996Z,99838.15
2023-02-23T21:32:14.658Z,99830.81
2023-02-23T21:34:43.800Z,99826.46
2023-02-23T21:37:12.928Z,99823.11
2023-02-23T21:39:41.893Z,99821.05
2023-02-23T21:42:10.788Z,99820.34
2023-02-23T21:44:40.010Z,99813.49
2023-02-23T21:47:08.472Z,99811.73
2023-02-23T21:49:38.710Z,99804.36
2023-02-23T21:52:08.928Z,99799.31
2023-02-23T21:54:39.041Z,99794.38
2023-02-23T21:57:07.637Z,99795.27
2023-02-23T21:59:36.005Z,99795.48
2023-02-23T22:02:04.780Z,99792.57
2023-02-23T22:04:36.244Z,99792.04
2023-02-23T22:07:05.676Z,99789.12
2023-02-23T22:09:35.369Z,99789.32
2023-02-23T22:12:04.888Z,99787.35
2023-02-23T22:14:34.997Z,99777.85
2023-02-23T22:20:01.564Z,99771.41
2023-02-23T22:22:36.329Z,99763.29
2023-02-23T22:25:06.423Z,99757.02
2023-02-23T22:27:35.609Z,99764.67
2023-02-23T22:30:06.655Z,99753.10
2023-02-23T22:32:37.063Z,99747.83
2023-02-23T22:35:07.530Z,99746.00
2023-02-23T22:37:36.918Z,99745.14
2023-02-23T22:40:24.549Z,99744.84
2023-02-23T22:42:54.979Z,99741.60
2023-02-23T22:45:23.365Z,99738.05
2023-02-23T22:47:55.737Z,99735.32
2023-02-23T22:50:24.217Z,99730.90
2023-02-23T22:52:52.599Z,99723.27
2023-02-23T22:55:20.981Z,99719.39
2023-02-23T22:57:49.696Z,99713.39
2023-02-23T23:00:19.094Z,99714.94
2023-02-23T23:02:47.656Z,99709.14
2023-02-23T23:05:18.087Z,99709.84
2023-02-23T23:07:49.341Z,99707.84
2023-02-23T23:10:18.436Z,99708.17
2023-02-23T23:12:47.222Z,99697.74
2023-02-23T23:15:17.476Z,99692.27
2023-02-23T23:17:50.229Z,99688.65
2023-02-23T23:20:23.221Z,99685.10
2023-02-23T23:22:54.986Z,99684.20
2023-02-23T23:25:29.818Z,99676.65
2023-02-23T23:27:58.600Z,99673.69
2023-02-23T23:30:29.416Z,99666.46
2023-02-23T23:32:58.689Z,99666.20
2023-02-23T23:35:27.132Z,99661.52
2023-02-23T23:37:57.045Z,99657.55
2023-02-23T23:40:25.741Z,99654.82
2023-02-23T23:42:55.652Z,99651.77
2023-02-23T23:45:27.743Z,99645.43
2023-02-23T23:47:56.205Z,99649.77
2023-02-23T23:50:27.522Z,99641.02
2023-02-23T23:52:57.308Z,99637.88
2023-02-23T23:55:31.256Z,99634.04
2023-02-23T23:58:00.664Z,99631.82
